sensor_id;sensor_type;location;lat;lon;timestamp;pressure;altitude;pressure_sealevel;temperature;humidity
20023;BME280;10172;42.054;24.546;2023-02-03T00:02:17;98419.91;;;4.74;97.65
20023;BME280;10172;42.054;24.546;2023-02-03T00:04:42;98404.47;;;5.06;94.56
20023;BME280;10172;42.054;24.546;2023-02-03T00:07:10;98377.16;;;5.27;90.50
20023;BME280;10172;42.054;24.546;2023-02-03T00:09:36;98396.13;;;5.16;91.21
20023;BME280;10172;42.054;24.546;2023-02-03T00:12:02;98411.94;;;4.96;90.14
20023;BME280;10172;42.054;24.546;2023-02-03T00:14:27;98413.03;;;5.31;90.23
20023;BME280;10172;42.054;24.546;2023-02-03T00:16:53;98421.41;;;5.20;90.25
20023;BME280;10172;42.054;24.546;2023-02-03T00:19:18;98405.66;;;4.99;91.39
20023;BME280;10172;42.054;24.546;2023-02-03T00:21:44;98405.16;;;5.11;91.33
20023;BME280;10172;42.054;24.546;2023-02-03T00:24:09;98387.22;;;5.37;89.97
20023;BME280;10172;42.054;24.546;2023-02-03T00:26:40;98396.44;;;5.09;87.94
20023;BME280;10172;42.054;24.546;2023-02-03T00:29:05;98385.03;;;5.08;89.76
20023;BME280;10172;42.054;24.546;2023-02-03T00:31:31;98398.16;;;5.10;90.66
20023;BME280;10172;42.054;24.546;2023-02-03T00:33:56;98411.22;;;5.13;87.47
20023;BME280;10172;42.054;24.546;2023-02-03T00:36:23;98398.16;;;5.10;87.34
20023;BME280;10172;42.054;24.546;2023-02-03T00:38:49;98407.47;;;5.37;85.30
20023;BME280;10172;42.054;24.546;2023-02-03T00:41:15;98398.59;;;5.19;85.34
20023;BME280;10172;42.054;24.546;2023-02-03T00:43:41;98403.75;;;5.41;86.22
20023;BME280;10172;42.054;24.546;2023-02-03T00:46:06;98428.72;;;5.34;86.62
20023;BME280;10172;42.054;24.546;2023-02-03T00:48:32;98412.13;;;5.12;89.57
20023;BME280;10172;42.054;24.546;2023-02-03T00:50:57;98419.69;;;5.58;87.68
20023;BME280;10172;42.054;24.546;2023-02-03T00:53:23;98416.50;;;5.70;86.60
20023;BME280;10172;42.054;24.546;2023-02-03T00:55:48;98409.69;;;5.07;85.26
20023;BME280;10172;42.054;24.546;2023-02-03T00:58:14;98418.16;;;5.14;88.47
20023;BME280;10172;42.054;24.546;2023-02-03T01:00:40;98427.06;;;5.11;87.68
20023;BME280;10172;42.054;24.546;2023-02-03T01:03:05;98426.28;;;5.09;84.82
20023;BME280;10172;42.054;24.546;2023-02-03T01:05:31;98432.69;;;5.04;87.04
20023;BME280;10172;42.054;24.546;2023-02-03T01:07:56;98417.13;;;4.77;89.79
20023;BME280;10172;42.054;24.546;2023-02-03T01:10:22;98428.63;;;4.97;87.42
20023;BME280;10172;42.054;24.546;2023-02-03T01:12:47;98418.47;;;5.08;87.46
20023;BME280;10172;42.054;24.546;2023-02-03T01:15:12;98412.94;;;4.94;89.15
20023;BME280;10172;42.054;24.546;2023-02-03T01:17:38;98412.91;;;4.73;89.57
20023;BME280;10172;42.054;24.546;2023-02-03T01:20:04;98412.78;;;4.76;90.31
20023;BME280;10172;42.054;24.546;2023-02-03T01:22:29;98436.50;;;4.76;91.58
20023;BME280;10172;42.054;24.546;2023-02-03T01:24:55;98420.41;;;4.62;90.88
20023;BME280;10172;42.054;24.546;2023-02-03T01:27:20;98438.38;;;4.95;91.88
20023;BME280;10172;42.054;24.546;2023-02-03T01:29:46;98422.38;;;4.57;92.25
20023;BME280;10172;42.054;24.546;2023-02-03T01:32:11;98437.41;;;4.55;93.29
20023;BME280;10172;42.054;24.546;2023-02-03T01:34:37;98455.78;;;4.57;93.77
20023;BME280;10172;42.054;24.546;2023-02-03T01:37:03;98465.75;;;4.49;95.36
20023;BME280;10172;42.054;24.546;2023-02-03T01:39:29;98459.59;;;4.28;96.98
20023;BME280;10172;42.054;24.546;2023-02-03T01:41:54;98457.75;;;4.30;99.16
20023;BME280;10172;42.054;24.546;2023-02-03T01:44:43;98457.75;;;4.30;98.19
20023;BME280;10172;42.054;24.546;2023-02-03T01:47:16;98454.94;;;4.35;98.96
20023;BME280;10172;42.054;24.546;2023-02-03T01:49:50;98456.34;;;4.21;100.00
20023;BME280;10172;42.054;24.546;2023-02-03T01:52:18;98456.94;;;4.28;99.77
20023;BME280;10172;42.054;24.546;2023-02-03T01:54:46;98462.00;;;4.54;99.71
20023;BME280;10172;42.054;24.546;2023-02-03T01:57:28;98475.47;;;4.48;100.00
20023;BME280;10172;42.054;24.546;2023-02-03T01:59:57;98485.25;;;4.23;100.00
20023;BME280;10172;42.054;24.546;2023-02-03T02:02:23;98480.75;;;4.25;100.00
20023;BME280;10172;42.054;24.546;2023-02-03T02:04:54;98482.06;;;4.37;100.00
20023;BME280;10172;42.054;24.546;2023-02-03T02:07:22;98475.94;;;4.36;100.00
20023;BME280;10172;42.054;24.546;2023-02-03T02:09:48;98475.16;;;4.34;100.00
20023;BME280;10172;42.054;24.546;2023-02-03T02:12:13;98485.31;;;4.65;100.00
20023;BME280;10172;42.054;24.546;2023-02-03T02:14:39;98480.22;;;4.60;100.00
20023;BME280;10172;42.054;24.546;2023-02-03T02:34:27;98492.34;;;4.21;100.00
20023;BME280;10172;42.054;24.546;2023-02-03T02:45:23;98504.13;;;4.11;100.00
20023;BME280;10172;42.054;24.546;2023-02-03T02:47:55;98506.19;;;4.03;100.00
20023;BME280;10172;42.054;24.546;2023-02-03T02:50:25;98499.91;;;4.07;100.00
20023;BME280;10172;42.054;24.546;2023-02-03T02:52:53;98504.78;;;4.17;100.00
20023;BME280;10172;42.054;24.546;2023-02-03T02:55:23;98482.78;;;3.97;100.00
20023;BME280;10172;42.054;24.546;2023-02-03T02:57:54;98488.34;;;4.11;100.00
20023;BME280;10172;42.054;24.546;2023-02-03T03:00:21;98479.66;;;4.09;100.00
20023;BME280;10172;42.054;24.546;2023-02-03T03:02:47;98471.59;;;4.13;98.46
20023;BME280;10172;42.054;24.546;2023-02-03T03:05:13;98484.00;;;4.10;97.95
20023;BME280;10172;42.054;24.546;2023-02-03T03:07:46;98465.34;;;4.16;95.97
20023;BME280;10172;42.054;24.546;2023-02-03T03:10:15;98485.06;;;4.28;93.69
20023;BME280;10172;42.054;24.546;2023-02-03T03:12:49;98477.13;;;4.06;94.52
20023;BME280;10172;42.054;24.546;2023-02-03T03:15:20;98483.22;;;4.08;93.38
20023;BME280;10172;42.054;24.546;2023-02-03T03:17:56;98493.59;;;4.11;94.44
20023;BME280;10172;42.054;24.546;2023-02-03T03:20:24;98512.09;;;4.09;94.36
20023;BME280;10172;42.054;24.546;2023-02-03T03:22:56;98528.94;;;4.50;92.06
20023;BME280;10172;42.054;24.546;2023-02-03T03:25:35;98522.84;;;4.27;91.59
20023;BME280;10172;42.054;24.546;2023-02-03T03:28:08;98517.94;;;4.17;93.31
20023;BME280;10172;42.054;24.546;2023-02-03T03:30:36;98528.19;;;4.68;89.17
20023;BME280;10172;42.054;24.546;2023-02-03T03:33:03;98539.28;;;4.76;90.33
20023;BME280;10172;42.054;24.546;2023-02-03T03:35:45;98522.28;;;4.18;90.74
20023;BME280;10172;42.054;24.546;2023-02-03T03:38:19;98520.34;;;4.23;88.58
20023;BME280;10172;42.054;24.546;2023-02-03T03:40:53;98519.47;;;4.23;87.73
20023;BME280;10172;42.054;24.546;2023-02-03T03:43:24;98524.44;;;4.31;88.38
20023;BME280;10172;42.054;24.546;2023-02-03T03:45:59;98523.84;;;4.46;87.69
20023;BME280;10172;42.054;24.546;2023-02-03T03:48:31;98528.31;;;4.65;87.78
20023;BME280;10172;42.054;24.546;2023-02-03T03:51:10;98516.19;;;4.83;86.37
20023;BME280;10172;42.054;24.546;2023-02-03T03:53:40;98529.13;;;4.67;86.02
20023;BME280;10172;42.054;24.546;2023-02-03T03:56:11;98542.84;;;5.58;83.55
20023;BME280;10172;42.054;24.546;2023-02-03T03:58:41;98550.44;;;6.24;80.48
20023;BME280;10172;42.054;24.546;2023-02-03T04:01:10;98555.13;;;6.55;77.99
20023;BME280;10172;42.054;24.546;2023-02-03T04:03:38;98564.16;;;5.73;79.54
20023;BME280;10172;42.054;24.546;2023-02-03T04:06:05;98556.53;;;5.47;80.66
20023;BME280;10172;42.054;24.546;2023-02-03T04:08:30;98551.44;;;6.22;79.36
20023;BME280;10172;42.054;24.546;2023-02-03T04:10:56;98559.66;;;4.73;83.87
20023;BME280;10172;42.054;24.546;2023-02-03T04:13:21;98561.03;;;4.60;86.84
20023;BME280;10172;42.054;24.546;2023-02-03T04:15:47;98557.50;;;5.44;85.19
20023;BME280;10172;42.054;24.546;2023-02-03T04:18:13;98557.38;;;5.48;82.90
20023;BME280;10172;42.054;24.546;2023-02-03T04:20:39;98553.47;;;5.36;85.52
20023;BME280;10172;42.054;24.546;2023-02-03T04:23:05;98559.66;;;5.15;86.85
20023;BME280;10172;42.054;24.546;2023-02-03T04:25:31;98560.91;;;4.63;89.22
20023;BME280;10172;42.054;24.546;2023-02-03T04:27:56;98559.09;;;4.65;89.92
20023;BME280;10172;42.054;24.546;2023-02-03T04:30:22;98561.41;;;5.36;86.66
20023;BME280;10172;42.054;24.546;2023-02-03T04:32:47;98562.63;;;5.68;84.24
20023;BME280;10172;42.054;24.546;2023-02-03T04:35:13;98576.03;;;5.63;84.79
20023;BME280;10172;42.054;24.546;2023-02-03T04:37:39;98575.38;;;4.74;90.99
20023;BME280;10172;42.054;24.546;2023-02-03T04:40:06;98568.47;;;5.14;90.56
20023;BME280;10172;42.054;24.546;2023-02-03T04:42:31;98570.47;;;4.65;95.03
20023;BME280;10172;42.054;24.546;2023-02-03T04:44:57;98560.03;;;4.41;94.11
20023;BME280;10172;42.054;24.546;2023-02-03T04:47:22;98583.84;;;4.82;93.25
20023;BME280;10172;42.054;24.546;2023-02-03T04:49:48;98572.31;;;4.63;93.47
20023;BME280;10172;42.054;24.546;2023-02-03T04:52:14;98575.13;;;5.64;89.48
20023;BME280;10172;42.054;24.546;2023-02-03T04:54:39;98590.06;;;4.13;94.99
20023;BME280;10172;42.054;24.546;2023-02-03T04:57:05;98588.09;;;4.42;93.41
20023;BME280;10172;42.054;24.546;2023-02-03T04:59:31;98608.31;;;5.08;90.96
20023;BME280;10172;42.054;24.546;2023-02-03T05:01:57;98596.69;;;4.47;91.83
20023;BME280;10172;42.054;24.546;2023-02-03T05:04:22;98593.66;;;4.34;92.39
20023;BME280;10172;42.054;24.546;2023-02-03T05:06:48;98604.03;;;4.83;91.65
20023;BME280;10172;42.054;24.546;2023-02-03T05:09:14;98582.84;;;4.63;91.26
20023;BME280;10172;42.054;24.546;2023-02-03T05:11:39;98585.19;;;4.93;89.96
20023;BME280;10172;42.054;24.546;2023-02-03T05:14:05;98586.19;;;4.23;93.01
20023;BME280;10172;42.054;24.546;2023-02-03T05:16:30;98585.00;;;4.31;91.58
20023;BME280;10172;42.054;24.546;2023-02-03T05:18:56;98580.50;;;4.34;90.02
20023;BME280;10172;42.054;24.546;2023-02-03T05:21:21;98584.28;;;4.27;89.29
20023;BME280;10172;42.054;24.546;2023-02-03T05:23:46;98587.06;;;4.22;90.11
20023;BME280;10172;42.054;24.546;2023-02-03T05:26:12;98602.78;;;4.70;87.40
20023;BME280;10172;42.054;24.546;2023-02-03T05:28:37;98592.94;;;4.97;86.63
20023;BME280;10172;42.054;24.546;2023-02-03T05:31:03;98599.22;;;4.93;86.85
20023;BME280;10172;42.054;24.546;2023-02-03T05:33:29;98610.09;;;4.86;86.20
20023;BME280;10172;42.054;24.546;2023-02-03T05:35:55;98625.38;;;4.76;86.25
20023;BME280;10172;42.054;24.546;2023-02-03T05:38:21;98623.69;;;4.97;84.95
20023;BME280;10172;42.054;24.546;2023-02-03T05:40:48;98629.69;;;4.57;86.08
20023;BME280;10172;42.054;24.546;2023-02-03T05:43:33;98644.56;;;4.35;87.89
20023;BME280;10172;42.054;24.546;2023-02-03T05:46:02;98647.16;;;4.59;87.73
20023;BME280;10172;42.054;24.546;2023-02-03T05:48:28;98639.91;;;4.18;88.07
20023;BME280;10172;42.054;24.546;2023-02-03T05:50:54;98642.44;;;4.21;88.17
20023;BME280;10172;42.054;24.546;2023-02-03T05:53:20;98653.34;;;4.35;88.27
20023;BME280;10172;42.054;24.546;2023-02-03T05:55:46;98654.63;;;4.23;88.94
20023;BME280;10172;42.054;24.546;2023-02-03T05:58:11;98661.94;;;4.40;88.53
20023;BME280;10172;42.054;24.546;2023-02-03T06:00:37;98676.88;;;4.15;89.71
20023;BME280;10172;42.054;24.546;2023-02-03T06:03:03;98676.25;;;4.08;89.28
20023;BME280;10172;42.054;24.546;2023-02-03T06:05:30;98671.88;;;4.32;87.81
20023;BME280;10172;42.054;24.546;2023-02-03T06:07:55;98686.06;;;4.28;87.48
20023;BME280;10172;42.054;24.546;2023-02-03T06:10:21;98684.78;;;4.15;87.17
20023;BME280;10172;42.054;24.546;2023-02-03T06:12:47;98695.00;;;4.24;88.24
20023;BME280;10172;42.054;24.546;2023-02-03T06:15:13;98684.00;;;4.36;87.02
20023;BME280;10172;42.054;24.546;2023-02-03T06:17:39;98662.94;;;4.36;86.28
20023;BME280;10172;42.054;24.546;2023-02-03T06:20:08;98691.34;;;4.74;85.37
20023;BME280;10172;42.054;24.546;2023-02-03T06:22:34;98697.19;;;4.36;86.01
20023;BME280;10172;42.054;24.546;2023-02-03T06:25:00;98688.78;;;4.02;88.02
20023;BME280;10172;42.054;24.546;2023-02-03T06:27:26;98698.13;;;3.86;88.86
20023;BME280;10172;42.054;24.546;2023-02-03T06:29:51;98688.78;;;4.02;87.77
20023;BME280;10172;42.054;24.546;2023-02-03T06:32:17;98699.19;;;4.05;88.38
20023;BME280;10172;42.054;24.546;2023-02-03T06:34:42;98682.44;;;4.07;88.57
20023;BME280;10172;42.054;24.546;2023-02-03T06:37:08;98683.72;;;4.20;87.27
20023;BME280;10172;42.054;24.546;2023-02-03T06:39:33;98690.41;;;4.54;87.02
20023;BME280;10172;42.054;24.546;2023-02-03T06:41:59;98708.94;;;4.51;86.50
20023;BME280;10172;42.054;24.546;2023-02-03T06:44:25;98706.13;;;4.78;85.45
20023;BME280;10172;42.054;24.546;2023-02-03T06:46:50;98716.25;;;5.12;84.11
20023;BME280;10172;42.054;24.546;2023-02-03T06:49:17;98724.50;;;5.90;81.23
20023;BME280;10172;42.054;24.546;2023-02-03T06:51:43;98718.50;;;4.53;84.74
20023;BME280;10172;42.054;24.546;2023-02-03T06:54:10;98735.88;;;4.34;85.52
20023;BME280;10172;42.054;24.546;2023-02-03T06:56:36;98741.66;;;4.20;86.27
20023;BME280;10172;42.054;24.546;2023-02-03T06:59:01;98753.34;;;4.12;87.59
20023;BME280;10172;42.054;24.546;2023-02-03T07:01:27;98745.34;;;4.15;87.81
20023;BME280;10172;42.054;24.546;2023-02-03T07:03:54;98746.03;;;4.20;87.40
20023;BME280;10172;42.054;24.546;2023-02-03T07:06:23;98737.66;;;4.09;87.84
20023;BME280;10172;42.054;24.546;2023-02-03T07:08:53;98753.34;;;4.12;86.70
20023;BME280;10172;42.054;24.546;2023-02-03T07:11:19;98758.53;;;4.40;87.31
20023;BME280;10172;42.054;24.546;2023-02-03T07:13:45;98758.50;;;4.15;88.30
20023;BME280;10172;42.054;24.546;2023-02-03T07:16:10;98764.22;;;4.28;87.78
20023;BME280;10172;42.054;24.546;2023-02-03T07:18:36;98765.63;;;4.38;89.12
20023;BME280;10172;42.054;24.546;2023-02-03T07:21:03;98779.88;;;4.32;90.17
20023;BME280;10172;42.054;24.546;2023-02-03T07:23:29;98768.09;;;4.42;88.60
20023;BME280;10172;42.054;24.546;2023-02-03T07:25:58;98790.72;;;4.96;88.00
20023;BME280;10172;42.054;24.546;2023-02-03T07:28:24;98795.19;;;4.94;87.51
20023;BME280;10172;42.054;24.546;2023-02-03T07:30:49;98781.28;;;4.65;88.66
20023;BME280;10172;42.054;24.546;2023-02-03T07:33:14;98790.13;;;4.40;89.80
20023;BME280;10172;42.054;24.546;2023-02-03T07:35:40;98789.03;;;4.20;90.77
20023;BME280;10172;42.054;24.546;2023-02-03T07:38:05;98782.59;;;4.54;88.64
20023;BME280;10172;42.054;24.546;2023-02-03T07:40:31;98764.91;;;4.33;91.11
20023;BME280;10172;42.054;24.546;2023-02-03T07:42:56;98759.00;;;4.26;91.41
20023;BME280;10172;42.054;24.546;2023-02-03T07:45:23;98772.22;;;4.49;90.40
20023;BME280;10172;42.054;24.546;2023-02-03T07:47:49;98771.25;;;4.52;91.59
20023;BME280;10172;42.054;24.546;2023-02-03T07:50:15;98762.19;;;4.83;90.10
20023;BME280;10172;42.054;24.546;2023-02-03T07:52:40;98763.66;;;4.67;89.48
20023;BME280;10172;42.054;24.546;2023-02-03T07:55:06;98779.38;;;4.94;89.04
20023;BME280;10172;42.054;24.546;2023-02-03T07:57:31;98789.38;;;4.84;89.30
20023;BME280;10172;42.054;24.546;2023-02-03T07:59:57;98780.28;;;4.69;89.46
20023;BME280;10172;42.054;24.546;2023-02-03T08:02:22;98783.84;;;4.92;88.16
20023;BME280;10172;42.054;24.546;2023-02-03T08:04:48;98779.41;;;4.92;87.98
20023;BME280;10172;42.054;24.546;2023-02-03T08:07:13;98784.63;;;4.94;87.81
20023;BME280;10172;42.054;24.546;2023-02-03T08:09:39;98798.09;;;5.09;87.66
20023;BME280;10172;42.054;24.546;2023-02-03T08:12:04;98800.22;;;5.23;87.37
20023;BME280;10172;42.054;24.546;2023-02-03T08:14:30;98802.94;;;5.21;86.10
20023;BME280;10172;42.054;24.546;2023-02-03T08:16:56;98803.09;;;5.17;86.57
20023;BME280;10172;42.054;24.546;2023-02-03T08:19:21;98832.59;;;5.03;87.18
20023;BME280;10172;42.054;24.546;2023-02-03T08:21:47;98808.19;;;4.75;88.21
20023;BME280;10172;42.054;24.546;2023-02-03T08:24:12;98816.22;;;4.95;88.13
20023;BME280;10172;42.054;24.546;2023-02-03T08:26:38;98823.59;;;5.09;87.72
20023;BME280;10172;42.054;24.546;2023-02-03T08:29:03;98824.94;;;4.97;88.68
20023;BME280;10172;42.054;24.546;2023-02-03T08:31:30;98832.69;;;5.02;87.30
20023;BME280;10172;42.054;24.546;2023-02-03T08:33:55;98825.38;;;4.85;88.62
20023;BME280;10172;42.054;24.546;2023-02-03T08:36:21;98815.91;;;4.79;89.23
20023;BME280;10172;42.054;24.546;2023-02-03T08:38:47;98819.59;;;4.75;88.87
20023;BME280;10172;42.054;24.546;2023-02-03T08:41:15;98824.59;;;4.83;88.44
20023;BME280;10172;42.054;24.546;2023-02-03T08:43:42;98818.22;;;5.12;86.74
20023;BME280;10172;42.054;24.546;2023-02-03T08:46:09;98821.66;;;4.91;88.13
20023;BME280;10172;42.054;24.546;2023-02-03T08:48:35;98817.25;;;5.14;87.36
20023;BME280;10172;42.054;24.546;2023-02-03T08:51:00;98809.59;;;5.53;86.27
20023;BME280;10172;42.054;24.546;2023-02-03T08:53:26;98800.91;;;5.28;86.09
20023;BME280;10172;42.054;24.546;2023-02-03T08:55:52;98810.47;;;5.54;85.38
20023;BME280;10172;42.054;24.546;2023-02-03T08:58:17;98809.72;;;5.50;83.61
20023;BME280;10172;42.054;24.546;2023-02-03T09:00:43;98803.25;;;5.57;84.39
20023;BME280;10172;42.054;24.546;2023-02-03T09:03:09;98799.25;;;5.25;85.48
20023;BME280;10172;42.054;24.546;2023-02-03T09:05:35;98811.78;;;5.42;85.44
20023;BME280;10172;42.054;24.546;2023-02-03T09:08:01;98810.72;;;5.46;85.60
20023;BME280;10172;42.054;24.546;2023-02-03T09:10:26;98808.69;;;5.54;84.90
20023;BME280;10172;42.054;24.546;2023-02-03T09:12:52;98811.59;;;5.47;84.38
20023;BME280;10172;42.054;24.546;2023-02-03T09:15:17;98803.13;;;5.60;84.35
20023;BME280;10172;42.054;24.546;2023-02-03T09:17:43;98804.94;;;6.03;83.96
20023;BME280;10172;42.054;24.546;2023-02-03T09:20:09;98812.28;;;5.73;80.26
20023;BME280;10172;42.054;24.546;2023-02-03T09:22:37;98806.09;;;5.74;77.98
20023;BME280;10172;42.054;24.546;2023-02-03T09:25:03;98815.66;;;6.00;76.33
20023;BME280;10172;42.054;24.546;2023-02-03T09:27:28;98822.19;;;5.68;75.80
20023;BME280;10172;42.054;24.546;2023-02-03T09:29:54;98809.59;;;5.75;75.36
20023;BME280;10172;42.054;24.546;2023-02-03T09:32:19;98817.22;;;5.82;76.08
20023;BME280;10172;42.054;24.546;2023-02-03T09:34:45;98800.69;;;5.56;76.98
20023;BME280;10172;42.054;24.546;2023-02-03T09:37:10;98807.63;;;5.80;79.01
20023;BME280;10172;42.054;24.546;2023-02-03T09:39:36;98795.09;;;5.86;79.16
20023;BME280;10172;42.054;24.546;2023-02-03T09:42:18;98789.81;;;5.63;77.28
20023;BME280;10172;42.054;24.546;2023-02-03T09:45:20;98802.00;;;5.67;77.96
20023;BME280;10172;42.054;24.546;2023-02-03T09:47:49;98803.72;;;5.90;77.49
20023;BME280;10172;42.054;24.546;2023-02-03T09:50:21;98792.69;;;5.79;76.24
20023;BME280;10172;42.054;24.546;2023-02-03T09:52:48;98793.66;;;5.78;76.41
20023;BME280;10172;42.054;24.546;2023-02-03T09:58:02;98781.63;;;5.92;74.43
20023;BME280;10172;42.054;24.546;2023-02-03T10:00:35;98781.25;;;6.01;73.65
20023;BME280;10172;42.054;24.546;2023-02-03T10:06:12;98791.16;;;5.96;74.08
20023;BME280;10172;42.054;24.546;2023-02-03T10:11:34;98795.75;;;6.53;71.72
20023;BME280;10172;42.054;24.546;2023-02-03T10:14:21;98801.94;;;6.52;71.43
20023;BME280;10172;42.054;24.546;2023-02-03T10:22:39;98785.28;;;6.10;69.14
20023;BME280;10172;42.054;24.546;2023-02-03T10:27:31;98777.97;;;6.37;69.49
20023;BME280;10172;42.054;24.546;2023-02-03T10:30:03;98780.06;;;6.49;69.07
20023;BME280;10172;42.054;24.546;2023-02-03T10:32:30;98779.63;;;6.39;67.03
20023;BME280;10172;42.054;24.546;2023-02-03T10:34:56;98766.06;;;6.47;66.48
20023;BME280;10172;42.054;24.546;2023-02-03T10:37:32;98771.75;;;6.58;67.33
20023;BME280;10172;42.054;24.546;2023-02-03T10:40:02;98775.44;;;6.74;67.22
20023;BME280;10172;42.054;24.546;2023-02-03T10:42:30;98764.72;;;6.57;67.03
20023;BME280;10172;42.054;24.546;2023-02-03T10:45:16;98760.53;;;6.53;66.33
20023;BME280;10172;42.054;24.546;2023-02-03T10:47:47;98751.97;;;7.05;67.36
20023;BME280;10172;42.054;24.546;2023-02-03T10:50:26;98755.53;;;7.04;66.83
20023;BME280;10172;42.054;24.546;2023-02-03T10:53:33;98758.09;;;6.87;66.91
20023;BME280;10172;42.054;24.546;2023-02-03T10:56:19;98761.38;;;6.33;68.88
20023;BME280;10172;42.054;24.546;2023-02-03T10:58:57;98760.66;;;6.50;68.92
20023;BME280;10172;42.054;24.546;2023-02-03T11:01:26;98754.44;;;6.51;68.57
20023;BME280;10172;42.054;24.546;2023-02-03T11:04:02;98754.41;;;6.32;65.79
20023;BME280;10172;42.054;24.546;2023-02-03T11:06:30;98745.88;;;6.26;65.84
20023;BME280;10172;42.054;24.546;2023-02-03T11:08:56;98751.00;;;6.49;64.22
20023;BME280;10172;42.054;24.546;2023-02-03T11:11:30;98739.31;;;6.73;65.96
20023;BME280;10172;42.054;24.546;2023-02-03T11:16:27;98732.47;;;6.69;65.22
20023;BME280;10172;42.054;24.546;2023-02-03T11:18:58;98741.53;;;7.21;62.76
20023;BME280;10172;42.054;24.546;2023-02-03T11:21:32;98727.66;;;6.97;60.53
20023;BME280;10172;42.054;24.546;2023-02-03T11:26:40;98729.56;;;6.75;61.13
20023;BME280;10172;42.054;24.546;2023-02-03T11:29:24;98731.13;;;6.79;61.70
20023;BME280;10172;42.054;24.546;2023-02-03T11:31:53;98711.25;;;6.71;61.51
20023;BME280;10172;42.054;24.546;2023-02-03T11:34:32;98700.63;;;7.09;61.69
20023;BME280;10172;42.054;24.546;2023-02-03T11:40:29;98719.59;;;7.55;59.04
20023;BME280;10172;42.054;24.546;2023-02-03T11:45:25;98698.69;;;7.67;59.99
20023;BME280;10172;42.054;24.546;2023-02-03T11:54:41;98696.09;;;7.66;56.05
20023;BME280;10172;42.054;24.546;2023-02-03T11:59:42;98670.09;;;7.02;56.78
20023;BME280;10172;42.054;24.546;2023-02-03T12:02:36;98672.28;;;7.11;58.13
20023;BME280;10172;42.054;24.546;2023-02-03T12:10:56;98667.94;;;7.29;59.58
20023;BME280;10172;42.054;24.546;2023-02-03T12:18:57;98655.75;;;7.95;55.89
20023;BME280;10172;42.054;24.546;2023-02-03T12:27:20;98647.34;;;7.87;55.64
20023;BME280;10172;42.054;24.546;2023-02-03T12:29:52;98645.53;;;7.53;56.58
20023;BME280;10172;42.054;24.546;2023-02-03T12:32:26;98645.06;;;7.09;55.81
20023;BME280;10172;42.054;24.546;2023-02-03T12:35:03;98637.75;;;7.14;58.36
20023;BME280;10172;42.054;24.546;2023-02-03T12:37:42;98644.88;;;7.31;59.67
20023;BME280;10172;42.054;24.546;2023-02-03T12:40:21;98642.63;;;7.41;56.94
20023;BME280;10172;42.054;24.546;2023-02-03T12:42:55;98646.06;;;7.43;56.03
20023;BME280;10172;42.054;24.546;2023-02-03T12:45:33;98625.41;;;7.15;55.93
20023;BME280;10172;42.054;24.546;2023-02-03T12:48:05;98624.81;;;7.27;55.25
20023;BME280;10172;42.054;24.546;2023-02-03T12:50:36;98639.34;;;7.36;53.32
20023;BME280;10172;42.054;24.546;2023-02-03T12:58:20;98619.66;;;7.24;53.91
20023;BME280;10172;42.054;24.546;2023-02-03T13:00:55;98628.63;;;7.39;53.27
20023;BME280;10172;42.054;24.546;2023-02-03T13:03:32;98631.53;;;7.68;53.89
20023;BME280;10172;42.054;24.546;2023-02-03T13:08:45;98624.91;;;7.60;52.07
20023;BME280;10172;42.054;24.546;2023-02-03T13:11:32;98620.78;;;7.71;50.52
20023;BME280;10172;42.054;24.546;2023-02-03T13:14:28;98631.13;;;7.93;51.03
20023;BME280;10172;42.054;24.546;2023-02-03T13:17:06;98609.63;;;7.99;49.69
20023;BME280;10172;42.054;24.546;2023-02-03T13:19:44;98610.69;;;8.12;49.90
20023;BME280;10172;42.054;24.546;2023-02-03T13:22:12;98602.34;;;8.20;48.97
20023;BME280;10172;42.054;24.546;2023-02-03T13:24:42;98589.28;;;8.81;47.60
20023;BME280;10172;42.054;24.546;2023-02-03T13:32:36;98576.09;;;8.64;48.82
20023;BME280;10172;42.054;24.546;2023-02-03T13:43:17;98587.06;;;7.75;49.31
20023;BME280;10172;42.054;24.546;2023-02-03T13:45:46;98575.00;;;7.69;48.08
20023;BME280;10172;42.054;24.546;2023-02-03T13:48:26;98586.28;;;7.56;48.15
20023;BME280;10172;42.054;24.546;2023-02-03T13:52:04;98592.25;;;8.11;49.25
20023;BME280;10172;42.054;24.546;2023-02-03T13:54:20;98555.81;;;8.31;48.33
20023;BME280;10172;42.054;24.546;2023-02-03T13:56:59;98567.81;;;8.54;48.79
20023;BME280;10172;42.054;24.546;2023-02-03T13:59:42;98568.75;;;8.20;51.28
20023;BME280;10172;42.054;24.546;2023-02-03T14:07:32;98586.50;;;7.86;54.88
20023;BME280;10172;42.054;24.546;2023-02-03T14:12:36;98581.88;;;8.06;54.13
20023;BME280;10172;42.054;24.546;2023-02-03T14:25:22;98573.06;;;7.03;57.32
20023;BME280;10172;42.054;24.546;2023-02-03T14:28:01;98592.50;;;7.20;55.79
20023;BME280;10172;42.054;24.546;2023-02-03T14:30:28;98577.13;;;6.74;55.06
20023;BME280;10172;42.054;24.546;2023-02-03T14:32:55;98583.53;;;6.87;54.25
20023;BME280;10172;42.054;24.546;2023-02-03T14:38:03;98599.94;;;7.12;52.59
20023;BME280;10172;42.054;24.546;2023-02-03T14:40:40;98606.59;;;7.38;51.88
20023;BME280;10172;42.054;24.546;2023-02-03T14:43:32;98595.53;;;7.13;52.69
20023;BME280;10172;42.054;24.546;2023-02-03T15:00:34;98608.72;;;6.77;53.84
20023;BME280;10172;42.054;24.546;2023-02-03T15:05:43;98618.81;;;7.23;53.26
20023;BME280;10172;42.054;24.546;2023-02-03T15:11:24;98625.28;;;6.43;54.50
20023;BME280;10172;42.054;24.546;2023-02-03T15:13:51;98618.88;;;6.86;54.45
20023;BME280;10172;42.054;24.546;2023-02-03T15:16:20;98629.28;;;7.08;53.92
20023;BME280;10172;42.054;24.546;2023-02-03T15:18:56;98625.81;;;6.70;54.06
20023;BME280;10172;42.054;24.546;2023-02-03T15:21:22;98619.72;;;6.68;52.97
20023;BME280;10172;42.054;24.546;2023-02-03T15:23:48;98629.41;;;6.49;55.12
20023;BME280;10172;42.054;24.546;2023-02-03T15:26:21;98623.84;;;6.36;55.78
20023;BME280;10172;42.054;24.546;2023-02-03T15:28:58;98617.78;;;5.95;55.85
20023;BME280;10172;42.054;24.546;2023-02-03T15:31:37;98618.00;;;6.30;56.33
20023;BME280;10172;42.054;24.546;2023-02-03T15:36:47;98608.47;;;5.87;56.89